Time;durP1;ratioP1;P1;durP2;ratioP2;P2;SDS_P1;SDS_P2;PMS_P1;PMS_P2;Temp;Humidity;BMP_temperature;BMP_pressure;BME280_temperature;BME280_humidity;BME280_pressure;Samples;Min_cycle;Max_cycle;Signal;HPM_P1;HPM_P2
2023/09/18 00:02:06;;;;;;;19.30;5.47;;;;;;;22.71;70.48;99035.50;5044468;28;20346;-72
2023/09/18 00:04:32;;;;;;;8.98;5.38;;;;;;;22.70;70.34;99031.09;5044085;28;20501;-71
2023/09/18 00:06:57;;;;;;;12.63;5.10;;;;;;;22.67;70.83;99023.53;5044098;28;20041;-72
2023/09/18 00:09:22;;;;;;;15.83;5.20;;;;;;;22.64;70.57;99021.44;5044520;28;20032;-72
2023/09/18 00:11:47;;;;;;;12.50;5.15;;;;;;;22.69;70.66;99023.16;5044739;28;20258;-71
2023/09/18 00:14:13;;;;;;;10.83;5.93;;;;;;;22.62;70.71;99021.00;5044008;28;20033;-72
2023/09/18 00:16:38;;;;;;;14.67;6.17;;;;;;;22.65;70.65;99011.97;5044015;28;20269;-72
2023/09/18 00:19:04;;;;;;;15.27;5.63;;;;;;;22.66;70.50;99010.00;5044048;28;20524;-71
2023/09/18 00:21:30;;;;;;;30.77;6.80;;;;;;;22.71;70.48;99018.84;5044324;28;20052;-71
2023/09/18 00:23:56;;;;;;;8.73;5.85;;;;;;;22.66;70.08;99013.56;5043521;28;20603;-72
2023/09/18 00:26:22;;;;;;;16.05;6.28;;;;;;;22.66;70.45;99013.56;5044331;28;20037;-72
2023/09/18 00:28:47;;;;;;;9.98;4.63;;;;;;;22.63;70.51;98995.66;5044398;28;20433;-72
2023/09/18 00:31:12;;;;;;;8.40;5.40;;;;;;;22.68;70.34;98997.34;5044125;28;20528;-71
2023/09/18 00:33:38;;;;;;;8.30;4.53;;;;;;;22.63;70.71;99000.38;5043876;28;20404;-72
2023/09/18 00:36:04;;;;;;;9.70;6.05;;;;;;;22.63;70.89;98989.28;5044395;28;20106;-71
2023/09/18 00:38:29;;;;;;;12.30;5.40;;;;;;;22.59;70.81;98983.66;5044342;28;20214;-72
2023/09/18 00:40:54;;;;;;;10.40;5.10;;;;;;;22.66;70.72;98973.91;5044336;28;20032;-72
2023/09/18 00:43:20;;;;;;;14.32;5.88;;;;;;;22.66;70.67;98971.91;5043780;28;20759;-72
2023/09/18 00:45:48;;;;;;;11.02;6.80;;;;;;;22.64;70.99;98957.53;5043686;28;20646;-72
2023/09/18 00:48:15;;;;;;;10.95;5.35;;;;;;;22.67;70.78;98956.03;5043933;28;20029;-73
2023/09/18 00:50:41;;;;;;;11.27;5.10;;;;;;;22.60;71.33;98953.91;5043771;28;20037;-73
2023/09/18 00:53:08;;;;;;;61.80;11.30;;;;;;;22.57;71.29;98954.63;5043359;28;20406;-73
2023/09/18 00:55:34;;;;;;;8.10;5.38;;;;;;;22.51;71.38;98952.19;5043226;28;20059;-72
2023/09/18 00:58:00;;;;;;;12.45;6.18;;;;;;;22.45;71.75;98950.03;5044316;28;20056;-72
2023/09/18 01:00:25;;;;;;;12.93;5.60;;;;;;;22.43;71.73;98939.31;5043929;28;20044;-71
2023/09/18 01:02:50;;;;;;;9.82;5.68;;;;;;;22.39;71.73;98941.22;5043792;28;20485;-72
2023/09/18 01:05:17;;;;;;;10.90;5.90;;;;;;;22.35;72.02;98940.34;5042491;28;20053;-72
2023/09/18 01:07:42;;;;;;;8.93;6.03;;;;;;;22.34;72.08;98947.03;5043657;28;20115;-72
2023/09/18 01:10:15;;;;;;;14.15;6.45;;;;;;;22.36;71.90;98936.38;5043299;28;20443;-72
2023/09/18 01:12:51;;;;;;;12.63;5.97;;;;;;;22.36;71.50;98925.28;5043649;28;20033;-72
2023/09/18 01:15:23;;;;;;;12.13;6.38;;;;;;;22.39;71.47;98924.56;5042597;28;20033;-72
2023/09/18 01:17:48;;;;;;;15.82;5.63;;;;;;;22.37;71.49;98915.78;5043519;28;20121;-72
2023/09/18 01:20:14;;;;;;;11.77;5.55;;;;;;;22.35;71.40;98907.03;5043462;28;20115;-72
2023/09/18 01:22:39;;;;;;;14.38;5.28;;;;;;;22.33;71.62;98909.34;5043156;28;20090;-71
2023/09/18 01:25:06;;;;;;;13.32;5.53;;;;;;;22.32;71.54;98918.84;5043020;28;20064;-73
2023/09/18 01:27:31;;;;;;;10.30;5.53;;;;;;;22.31;71.54;98918.06;5043277;28;20032;-71
2023/09/18 01:29:57;;;;;;;14.98;4.55;;;;;;;22.37;71.22;98910.25;5043290;28;20037;-71
2023/09/18 01:32:26;;;;;;;11.20;5.20;;;;;;;22.22;71.63;98915.50;5042970;28;20090;-71
2023/09/18 01:34:55;;;;;;;12.75;5.95;;;;;;;22.24;71.71;98910.38;5042749;28;20790;-71
2023/09/18 01:37:23;;;;;;;11.65;5.35;;;;;;;22.34;71.57;98905.41;5042988;28;20036;-72
2023/09/18 01:39:50;;;;;;;8.70;4.88;;;;;;;22.38;71.51;98906.28;5043129;28;20051;-71
2023/09/18 01:42:16;;;;;;;14.25;6.85;;;;;;;22.27;71.74;98906.84;5042807;28;20526;-71
2023/09/18 01:44:44;;;;;;;12.05;5.45;;;;;;;22.31;71.33;98906.16;5043206;28;20033;-71
2023/09/18 01:47:15;;;;;;;12.60;5.63;;;;;;;22.32;70.69;98899.41;5042919;28;20498;-71
2023/09/18 01:49:42;;;;;;;12.15;4.57;;;;;;;22.42;70.25;98898.00;5042949;28;20433;-71
2023/09/18 01:52:08;;;;;;;8.35;4.20;;;;;;;22.51;69.76;98893.88;5042441;28;20035;-72
2023/09/18 01:54:34;;;;;;;13.63;4.15;;;;;;;22.54;69.47;98886.75;5042428;28;20033;-72
2023/09/18 01:57:01;;;;;;;15.02;4.97;;;;;;;22.57;69.17;98874.91;5043442;28;20036;-75
2023/09/18 01:59:26;;;;;;;12.70;4.97;;;;;;;22.54;69.23;98872.09;5042602;28;20433;-75
2023/09/18 02:01:53;;;;;;;10.50;4.53;;;;;;;22.51;69.29;98866.09;5043099;28;20033;-74
2023/09/18 02:04:19;;;;;;;12.30;5.97;;;;;;;22.58;69.01;98859.03;5042780;28;20122;-74
2023/09/18 02:06:45;;;;;;;18.20;5.90;;;;;;;22.48;69.06;98860.44;5042353;28;20051;-74
2023/09/18 02:09:11;;;;;;;9.93;4.80;;;;;;;22.46;69.28;98863.59;5042595;28;20571;-75
2023/09/18 02:11:42;;;;;;;8.30;4.00;;;;;;;22.50;68.90;98858.91;5042446;28;20295;-74
2023/09/18 02:14:09;;;;;;;10.70;4.13;;;;;;;22.48;68.72;98855.72;5042499;28;20405;-75
2023/09/18 02:16:40;;;;;;;13.45;5.10;;;;;;;22.45;68.70;98844.53;5042480;28;20040;-74
2023/09/18 02:19:07;;;;;;;10.55;4.85;;;;;;;22.50;68.57;98847.81;5042600;28;20064;-75
2023/09/18 02:21:32;;;;;;;6.45;3.85;;;;;;;22.55;68.58;98843.13;5042415;28;20041;-74
2023/09/18 02:23:57;;;;;;;11.93;5.32;;;;;;;22.56;68.00;98833.63;5042026;28;20486;-74
2023/09/18 02:26:24;;;;;;;15.05;4.82;;;;;;;22.60;68.16;98829.72;5042438;28;20147;-75
2023/09/18 02:28:53;;;;;;;12.07;4.57;;;;;;;22.60;67.86;98828.94;5044894;28;20425;-75
2023/09/18 02:31:18;;;;;;;12.30;4.93;;;;;;;22.56;68.02;98819.72;5046515;28;20101;-74
2023/09/18 02:33:43;;;;;;;9.07;3.97;;;;;;;22.60;67.82;98807.53;5046625;28;20357;-75
2023/09/18 02:36:08;;;;;;;12.60;4.87;;;;;;;22.63;67.70;98811.53;5046166;28;20041;-75
2023/09/18 02:38:34;;;;;;;7.57;4.30;;;;;;;22.61;67.27;98802.78;5046652;28;20774;-75
2023/09/18 02:41:00;;;;;;;8.80;4.10;;;;;;;22.68;67.12;98799.34;5046372;28;20266;-75
2023/09/18 02:43:26;;;;;;;7.90;3.85;;;;;;;22.74;66.93;98784.75;5045984;28;20352;-76
2023/09/18 02:45:51;;;;;;;6.63;3.50;;;;;;;22.71;67.04;98779.97;5046261;28;20485;-75
2023/09/18 02:48:17;;;;;;;9.07;4.82;;;;;;;22.66;66.93;98777.50;5046118;28;20740;-76
2023/09/18 02:50:43;;;;;;;8.48;3.97;;;;;;;22.74;66.67;98770.88;5046393;28;20036;-76
2023/09/18 02:53:17;;;;;;;8.88;4.13;;;;;;;22.76;66.50;98766.94;5045510;28;20563;-76
2023/09/18 02:55:43;;;;;;;8.13;4.40;;;;;;;22.72;66.34;98776.00;5045954;28;20146;-75
2023/09/18 02:58:10;;;;;;;9.95;4.07;;;;;;;22.72;66.12;98776.00;5045726;28;20128;-75
2023/09/18 03:00:40;;;;;;;11.52;4.45;;;;;;;22.80;65.87;98767.81;5046136;28;20037;-76
2023/09/18 03:03:06;;;;;;;11.02;3.55;;;;;;;22.77;65.88;98762.97;5045571;28;20029;-75
2023/09/18 03:05:31;;;;;;;9.32;4.57;;;;;;;22.79;65.50;98763.41;5044659;28;20072;-72
2023/09/18 03:07:56;;;;;;;19.48;4.55;;;;;;;22.82;65.40;98757.13;5045440;28;20037;-74
2023/09/18 03:10:22;;;;;;;10.87;4.27;;;;;;;22.80;64.98;98751.13;5044327;28;20102;-73
2023/09/18 03:12:48;;;;;;;12.77;4.77;;;;;;;22.85;65.07;98739.69;5045311;28;20039;-72
2023/09/18 03:15:13;;;;;;;11.63;4.90;;;;;;;22.84;65.35;98741.66;5044999;28;20316;-73
2023/09/18 03:17:40;;;;;;;8.18;4.20;;;;;;;22.84;65.24;98738.88;5045301;28;20036;-72
2023/09/18 03:20:07;;;;;;;8.77;3.22;;;;;;;22.84;65.08;98732.56;5045822;28;20120;-73
2023/09/18 03:22:32;;;;;;;10.27;4.25;;;;;;;22.90;64.89;98721.91;5045514;28;20490;-73
2023/09/18 03:24:57;;;;;;;13.77;3.83;;;;;;;22.84;64.97;98721.44;5044807;28;20039;-72
2023/09/18 03:27:28;;;;;;;7.80;3.70;;;;;;;22.85;65.00;98717.47;5045318;28;20132;-72
2023/09/18 03:29:53;;;;;;;8.73;4.50;;;;;;;22.88;65.15;98702.84;5045154;28;20266;-72
2023/09/18 03:32:19;;;;;;;10.13;3.97;;;;;;;22.82;65.13;98707.91;5044997;28;20029;-73
2023/09/18 03:34:44;;;;;;;7.03;3.33;;;;;;;22.80;65.31;98712.25;5045008;28;20041;-72
2023/09/18 03:37:09;;;;;;;7.60;4.20;;;;;;;22.77;65.54;98710.19;5045574;28;20024;-73
2023/09/18 03:39:35;;;;;;;11.52;4.20;;;;;;;22.72;65.87;98709.34;5045077;28;20344;-72
2023/09/18 03:42:00;;;;;;;9.17;4.40;;;;;;;22.80;65.64;98703.91;5045153;28;20375;-73
2023/09/18 03:44:25;;;;;;;13.07;5.33;;;;;;;22.83;65.97;98705.94;5044618;28;20033;-72
2023/09/18 03:46:50;;;;;;;11.27;4.90;;;;;;;22.80;65.78;98690.81;5044997;28;20033;-72
2023/09/18 03:49:16;;;;;;;15.20;4.80;;;;;;;22.82;65.52;98694.00;5045656;28;20560;-72
2023/09/18 03:51:41;;;;;;;10.40;4.10;;;;;;;22.85;65.71;98684.13;5044925;28;20277;-72
2023/09/18 03:54:06;;;;;;;11.57;3.93;;;;;;;22.79;65.95;98680.88;5044872;28;20211;-73
2023/09/18 03:56:31;;;;;;;10.63;4.40;;;;;;;22.80;66.10;98676.13;5044493;28;20435;-72
2023/09/18 03:58:58;;;;;;;11.88;3.70;;;;;;;22.80;65.95;98674.13;5045142;28;20071;-72
2023/09/18 04:01:23;;;;;;;19.58;4.72;;;;;;;22.85;66.24;98681.34;5044948;28;20049;-72
2023/09/18 04:03:49;;;;;;;11.35;4.88;;;;;;;22.74;66.46;98673.66;5044187;28;20041;-72
2023/09/18 04:06:14;;;;;;;11.77;4.00;;;;;;;22.73;66.71;98671.25;5043889;28;20053;-72
2023/09/18 04:08:39;;;;;;;12.73;4.97;;;;;;;22.78;66.64;98672.94;5043909;28;20095;-74
2023/09/18 04:11:04;;;;;;;15.48;5.72;;;;;;;22.76;66.96;98672.50;5044253;28;20040;-73
2023/09/18 04:13:30;;;;;;;9.73;4.43;;;;;;;22.73;67.00;98654.59;5044679;28;20037;-72
2023/09/18 04:15:56;;;;;;;13.77;4.03;;;;;;;22.66;67.21;98671.16;5044485;28;20888;-76
2023/09/18 04:18:22;;;;;;;8.82;3.75;;;;;;;22.68;67.45;98691.81;5045079;28;20065;-75
2023/09/18 04:20:49;;;;;;;9.25;4.80;;;;;;;22.66;67.57;98679.50;5044739;28;20029;-75
2023/09/18 04:23:26;;;;;;;11.82;4.13;;;;;;;22.64;67.52;98665.94;5045267;28;21088;-76
2023/09/18 04:25:53;;;;;;;12.18;4.47;;;;;;;22.59;67.80;98661.53;5045086;28;20071;-75
2023/09/18 04:28:20;;;;;;;12.77;4.45;;;;;;;22.42;68.50;98657.28;5045222;28;20090;-75
2023/09/18 04:30:46;;;;;;;10.52;4.25;;;;;;;22.43;68.58;98671.97;5044371;28;20067;-76
2023/09/18 04:33:13;;;;;;;12.00;5.38;;;;;;;22.43;68.81;98661.69;5044086;28;20061;-76
2023/09/18 04:35:39;;;;;;;14.98;5.05;;;;;;;22.47;68.85;98665.31;5043758;28;20528;-77
2023/09/18 04:38:05;;;;;;;26.05;4.65;;;;;;;22.41;69.41;98674.31;5044444;28;20032;-76
2023/09/18 04:40:32;;;;;;;15.43;3.92;;;;;;;22.34;69.84;98683.31;5044175;28;20032;-75
2023/09/18 04:42:58;;;;;;;11.95;4.03;;;;;;;22.27;69.74;98684.03;5044373;28;20036;-75
2023/09/18 04:45:24;;;;;;;14.32;4.28;;;;;;;22.16;70.26;98687.41;5043489;28;20136;-75
2023/09/18 04:47:49;;;;;;;14.25;4.55;;;;;;;22.21;69.92;98680.75;5043975;28;20120;-76
2023/09/18 04:50:14;;;;;;;13.73;4.40;;;;;;;22.22;69.95;98659.34;5043616;28;20032;-76
2023/09/18 04:52:43;;;;;;;14.50;4.13;;;;;;;22.26;70.12;98647.13;5043827;28;20491;-76
2023/09/18 04:55:09;;;;;;;12.23;4.35;;;;;;;22.27;69.98;98651.50;5043464;28;20273;-75
2023/09/18 04:57:34;;;;;;;15.90;4.65;;;;;;;22.20;70.30;98664.47;5044461;28;20482;-75
2023/09/18 05:00:00;;;;;;;10.53;4.03;;;;;;;22.19;70.44;98671.97;5044404;28;20037;-75
2023/09/18 05:02:25;;;;;;;21.75;4.85;;;;;;;22.07;70.92;98686.06;5044009;28;20331;-75
2023/09/18 05:04:51;;;;;;;14.93;5.07;;;;;;;21.98;71.26;98680.75;5043381;28;20071;-76
2023/09/18 05:07:17;;;;;;;10.25;3.58;;;;;;;21.96;71.32;98678.34;5043855;28;20343;-75
2023/09/18 05:09:42;;;;;;;9.98;3.88;;;;;;;21.86;71.73;98665.91;5043848;28;20036;-75
2023/09/18 05:12:13;;;;;;;18.33;4.30;;;;;;;21.84;71.95;98667.41;5043843;28;20041;-75
2023/09/18 05:14:41;;;;;;;16.58;4.00;;;;;;;21.91;71.96;98662.00;5043672;28;20029;-75
2023/09/18 05:17:12;;;;;;;14.23;4.50;;;;;;;21.96;71.86;98661.69;5043810;28;20068;-76
2023/09/18 05:19:37;;;;;;;15.70;5.20;;;;;;;21.90;71.88;98664.00;5043521;28;20398;-75
2023/09/18 05:22:02;;;;;;;16.17;3.83;;;;;;;21.89;72.21;98656.00;5043099;28;20029;-75
2023/09/18 05:24:29;;;;;;;14.32;4.38;;;;;;;21.83;72.50;98657.47;5042955;28;20063;-75
2023/09/18 05:26:54;;;;;;;15.75;4.78;;;;;;;21.80;72.63;98664.56;5042702;28;20032;-73
2023/09/18 05:29:20;;;;;;;12.02;3.97;;;;;;;21.84;72.55;98672.97;5043035;28;20033;-72
2023/09/18 05:31:45;;;;;;;12.55;3.95;;;;;;;21.78;72.79;98664.13;5042965;28;20090;-72
2023/09/18 05:34:12;;;;;;;15.18;4.25;;;;;;;21.75;73.38;98659.31;5042017;28;20044;-73
2023/09/18 05:36:37;;;;;;;11.25;4.20;;;;;;;21.75;73.13;98660.09;5042692;28;20040;-72
2023/09/18 05:39:03;;;;;;;14.70;3.97;;;;;;;21.69;73.30;98669.91;5042296;28;20486;-72
2023/09/18 05:41:28;;;;;;;19.10;5.47;;;;;;;21.62;73.83;98686.41;5042149;28;20063;-72
2023/09/18 05:43:55;;;;;;;12.57;4.03;;;;;;;21.63;73.84;98685.22;5042061;28;20040;-72
2023/09/18 05:46:20;;;;;;;10.95;4.93;;;;;;;21.58;73.77;98695.44;5042378;28;20514;-73
2023/09/18 05:48:45;;;;;;;12.20;4.05;;;;;;;21.58;74.22;98695.44;5042772;28;20043;-73
2023/09/18 05:51:11;;;;;;;14.90;3.53;;;;;;;21.70;73.68;98702.03;5041337;28;20033;-70
2023/09/18 05:53:37;;;;;;;12.93;3.60;;;;;;;21.58;73.87;98689.91;5041575;28;20765;-72
2023/09/18 05:56:03;;;;;;;10.63;3.92;;;;;;;21.55;74.25;98696.19;5042276;28;20274;-68
2023/09/18 05:58:32;;;;;;;24.17;5.05;;;;;;;21.65;73.87;98694.78;5042752;28;20532;-69
2023/09/18 06:01:00;;;;;;;15.10;4.22;;;;;;;21.76;73.46;98700.56;5042343;28;20106;-69
2023/09/18 06:03:26;;;;;;;6.78;3.22;;;;;;;21.70;73.72;98702.81;5042500;28;20052;-69
2023/09/18 06:05:52;;;;;;;18.13;3.63;;;;;;;21.65;73.95;98710.63;5049106;28;20055;-77
2023/09/18 06:08:18;;;;;;;10.63;3.80;;;;;;;21.69;73.56;98703.97;5050207;28;20021;-78
2023/09/18 06:10:44;;;;;;;14.23;3.75;;;;;;;21.79;73.21;98713.66;5047501;28;20293;-78
2023/09/18 06:13:09;;;;;;;13.88;4.28;;;;;;;21.84;73.59;98706.25;5042455;28;20450;-78
2023/09/18 06:15:35;;;;;;;16.00;5.03;;;;;;;21.83;73.38;98710.19;5041433;28;20037;-78
2023/09/18 06:18:00;;;;;;;16.58;3.60;;;;;;;21.76;73.62;98706.09;5042685;28;20124;-79
2023/09/18 06:20:25;;;;;;;18.83;4.35;;;;;;;21.82;73.68;98712.16;5042263;28;20132;-78
2023/09/18 06:22:50;;;;;;;17.67;3.83;;;;;;;21.78;73.31;98708.50;5042700;28;20391;-77
2023/09/18 06:25:16;;;;;;;16.07;4.37;;;;;;;21.74;73.57;98725.06;5042976;28;20132;-77
2023/09/18 06:27:41;;;;;;;15.77;3.55;;;;;;;21.62;73.97;98747.41;5043833;28;20908;-77
2023/09/18 06:30:07;;;;;;;14.90;3.90;;;;;;;21.68;74.00;98759.81;5045792;28;20060;-76
2023/09/18 06:32:32;;;;;;;12.20;3.90;;;;;;;21.73;73.85;98751.19;5043192;28;20608;-76
2023/09/18 06:34:58;;;;;;;8.75;3.08;;;;;;;21.70;73.72;98752.72;5042452;28;20090;-75
2023/09/18 06:37:24;;;;;;;13.75;5.50;;;;;;;21.75;73.77;98743.31;5043244;28;20695;-76
2023/09/18 06:39:49;;;;;;;13.35;3.50;;;;;;;21.73;73.62;98747.59;5042544;28;20079;-76
2023/09/18 06:42:14;;;;;;;10.02;3.35;;;;;;;21.67;73.79;98747.91;5042105;28;20041;-76
2023/09/18 06:44:39;;;;;;;10.80;3.10;;;;;;;21.71;73.48;98742.44;5042106;28;20124;-76
2023/09/18 06:47:05;;;;;;;11.63;3.97;;;;;;;21.72;73.32;98741.28;5041992;28;20025;-76
2023/09/18 06:49:30;;;;;;;13.48;3.20;;;;;;;21.69;73.31;98728.94;5042330;28;20268;-77
2023/09/18 06:51:56;;;;;;;8.45;3.15;;;;;;;21.73;73.28;98751.19;5042429;28;20087;-76
2023/09/18 06:54:21;;;;;;;12.90;4.30;;;;;;;21.63;73.73;98758.13;5041521;28;20478;-76
2023/09/18 06:56:47;;;;;;;12.52;4.28;;;;;;;21.64;73.89;98759.72;5040482;28;20099;-76
2023/09/18 06:59:12;;;;;;;10.95;2.97;;;;;;;21.70;73.69;98772.13;5042139;28;20795;-74
2023/09/18 07:01:39;;;;;;;10.98;3.25;;;;;;;21.78;73.41;98767.53;5040898;28;20040;-76
2023/09/18 07:04:05;;;;;;;11.98;3.33;;;;;;;21.74;73.05;98761.13;5040674;28;20132;-75
2023/09/18 07:06:30;;;;;;;13.25;3.53;;;;;;;21.84;73.08;98773.63;5041461;28;20106;-75
2023/09/18 07:08:56;;;;;;;13.40;3.00;;;;;;;21.85;72.89;98771.63;5042040;28;20103;-76
2023/09/18 07:11:22;;;;;;;9.55;2.67;;;;;;;21.91;72.78;98786.81;5042046;28;20037;-75
2023/09/18 07:13:47;;;;;;;9.38;2.60;;;;;;;21.97;72.41;98771.50;5042840;28;20045;-75
2023/09/18 07:16:13;;;;;;;12.10;2.60;;;;;;;22.02;71.65;98776.75;5045923;28;20029;-75
2023/09/18 07:18:38;;;;;;;10.15;3.22;;;;;;;21.97;71.81;98790.91;5045499;28;20842;-76
2023/09/18 07:21:03;;;;;;;9.40;2.90;;;;;;;21.96;72.20;98786.53;5045574;28;20407;-76
2023/09/18 07:23:29;;;;;;;9.63;2.13;;;;;;;22.03;71.86;98772.00;5044898;28;20274;-75
2023/09/18 07:25:54;;;;;;;7.37;2.23;;;;;;;22.08;71.73;98766.16;5045544;28;20041;-76
2023/09/18 07:28:19;;;;;;;9.97;3.57;;;;;;;22.12;71.57;98777.31;5044385;28;20266;-76
2023/09/18 07:30:45;;;;;;;8.93;2.42;;;;;;;22.07;71.75;98775.63;5045425;28;20262;-76
2023/09/18 07:33:11;;;;;;;7.43;2.58;;;;;;;22.01;71.74;98777.09;5045360;28;20051;-75
2023/09/18 07:35:37;;;;;;;13.60;2.88;;;;;;;22.18;71.57;98780.59;5043433;28;20497;-75
2023/09/18 07:38:03;;;;;;;8.68;2.85;;;;;;;22.27;71.10;98781.97;5045013;28;20120;-75
2023/09/18 07:40:28;;;;;;;5.95;1.92;;;;;;;22.32;70.97;98796.69;5043067;28;20049;-75
2023/09/18 07:42:54;;;;;;;10.33;2.40;;;;;;;22.25;71.46;98797.41;5044488;28;20509;-76
2023/09/18 07:45:19;;;;;;;5.32;2.00;;;;;;;22.29;70.97;98798.25;5044466;28;20281;-76
2023/09/18 07:47:44;;;;;;;10.33;2.13;;;;;;;22.33;71.02;98798.31;5045147;28;20033;-76
2023/09/18 07:50:09;;;;;;;8.10;2.20;;;;;;;22.35;70.47;98802.31;5045073;28;20289;-76
2023/09/18 07:52:36;;;;;;;7.05;2.00;;;;;;;22.42;70.34;98801.66;5044893;28;20262;-76
2023/09/18 07:55:01;;;;;;;10.98;2.35;;;;;;;22.42;70.61;98793.31;5044232;28;20140;-75
2023/09/18 07:57:31;;;;;;;11.98;3.22;;;;;;;22.42;70.19;98790.53;5045083;28;20406;-76
2023/09/18 07:59:57;;;;;;;7.53;2.53;;;;;;;22.45;70.27;98800.13;5044498;28;20041;-76
2023/09/18 08:02:23;;;;;;;18.67;2.55;;;;;;;22.36;70.68;98803.13;5045227;28;20064;-77
2023/09/18 08:04:48;;;;;;;8.90;2.55;;;;;;;22.35;70.50;98815.41;5043199;28;20048;-76
2023/09/18 08:07:13;;;;;;;5.47;2.13;;;;;;;22.36;70.60;98814.22;5044491;28;20095;-76
2023/09/18 08:09:39;;;;;;;12.43;2.47;;;;;;;22.50;70.23;98830.34;5043849;28;20133;-76
2023/09/18 08:12:05;;;;;;;9.88;2.35;;;;;;;22.58;70.23;98828.50;5044356;28;20095;-76
2023/09/18 08:14:31;;;;;;;7.70;2.38;;;;;;;22.60;69.79;98812.25;5043934;28;20055;-76
2023/09/18 08:17:01;;;;;;;9.07;2.47;;;;;;;22.55;69.89;98815.38;5044440;28;20037;-75
2023/09/18 08:19:26;;;;;;;7.50;2.50;;;;;;;22.45;70.27;98825.09;5044066;28;20138;-75
2023/09/18 08:21:55;;;;;;;12.73;3.03;;;;;;;22.46;69.77;98821.94;5042534;28;20807;-75
2023/09/18 08:24:21;;;;;;;8.82;2.45;;;;;;;22.41;69.76;98836.16;5043997;28;20041;-77
2023/09/18 08:26:47;;;;;;;11.82;2.45;;;;;;;22.38;70.41;98853.53;5043667;28;20041;-75
2023/09/18 08:29:12;;;;;;;7.83;2.27;;;;;;;22.40;70.16;98828.97;5044388;28;20498;-76
2023/09/18 08:31:37;;;;;;;10.77;3.03;;;;;;;22.43;70.25;98833.00;5044170;28;20262;-75
2023/09/18 08:34:03;;;;;;;6.47;2.90;;;;;;;22.40;70.46;98842.88;5044320;28;20072;-75
2023/09/18 08:36:30;;;;;;;7.97;2.10;;;;;;;22.50;69.85;98833.13;5044329;28;20143;-75
2023/09/18 08:38:55;;;;;;;9.43;1.95;;;;;;;22.34;69.75;98833.22;5043990;28;20270;-75
2023/09/18 08:41:26;;;;;;;7.10;2.05;;;;;;;22.43;69.84;98836.59;5043535;28;20037;-75
2023/09/18 08:43:53;;;;;;;3.75;1.90;;;;;;;22.55;69.39;98824.50;5043613;28;20060;-76
2023/09/18 08:46:20;;;;;;;6.85;1.92;;;;;;;22.68;69.01;98816.03;5044618;28;20395;-75
2023/09/18 08:48:46;;;;;;;6.90;2.00;;;;;;;22.61;68.71;98817.47;5043826;28;20490;-77
2023/09/18 08:51:13;;;;;;;7.88;2.22;;;;;;;22.84;68.16;98836.13;5043574;28;20025;-75
2023/09/18 08:53:39;;;;;;;6.47;2.33;;;;;;;22.96;67.82;98851.00;5043020;28;20028;-75
2023/09/18 08:56:07;;;;;;;8.27;1.70;;;;;;;22.96;67.85;98846.22;5043697;28;20103;-75
2023/09/18 08:58:37;;;;;;;7.38;2.42;;;;;;;22.96;67.69;98842.66;5043942;28;20037;-76
2023/09/18 09:01:09;;;;;;;12.32;1.95;;;;;;;22.78;67.53;98845.16;5043791;28;20060;-76
2023/09/18 09:03:38;;;;;;;4.55;1.95;;;;;;;22.79;68.08;98847.56;5043066;28;20178;-75
2023/09/18 09:06:04;;;;;;;9.27;2.30;;;;;;;22.85;67.54;98836.94;5044027;28;20286;-76
2023/09/18 09:08:29;;;;;;;16.60;2.97;;;;;;;22.89;67.35;98845.31;5043733;28;20107;-77
2023/09/18 09:10:57;;;;;;;7.13;2.15;;;;;;;22.89;67.30;98848.91;5043267;28;20201;-75
2023/09/18 09:13:26;;;;;;;9.55;2.20;;;;;;;22.86;67.48;98842.09;5043707;28;20114;-76
2023/09/18 09:15:55;;;;;;;5.28;1.70;;;;;;;23.01;67.41;98831.22;5043083;28;20045;-76
2023/09/18 09:18:22;;;;;;;2.78;1.83;;;;;;;23.19;67.16;98834.28;5043482;28;20029;-75
2023/09/18 09:20:57;;;;;;;8.77;2.55;;;;;;;23.11;66.75;98824.22;5041780;28;20102;-75
2023/09/18 09:23:24;;;;;;;4.38;1.45;;;;;;;23.13;66.78;98840.53;5041569;28;20064;-75
2023/09/18 09:25:49;;;;;;;16.23;3.55;;;;;;;23.09;67.04;98855.19;5042699;28;20041;-76
2023/09/18 09:28:16;;;;;;;7.13;2.13;;;;;;;22.96;67.39;98851.78;5043471;28;20090;-75
2023/09/18 09:30:42;;;;;;;7.05;1.73;;;;;;;23.13;67.28;98846.09;5043040;28;20049;-76
2023/09/18 09:33:12;;;;;;;5.88;1.52;;;;;;;23.25;67.41;98843.09;5043327;28;20036;-76
2023/09/18 09:35:38;;;;;;;8.07;1.70;;;;;;;23.32;67.05;98839.63;5041833;28;20122;-76
2023/09/18 09:38:11;;;;;;;6.72;2.13;;;;;;;23.31;66.51;98849.16;5043152;28;20033;-76
2023/09/18 09:40:41;;;;;;;5.85;1.52;;;;;;;23.12;65.75;98847.28;5042064;28;20053;-75
2023/09/18 09:43:13;;;;;;;5.05;1.42;;;;;;;22.83;65.94;98858.72;5042450;28;20044;-75
2023/09/18 09:45:40;;;;;;;2.63;1.20;;;;;;;22.75;66.87;98866.13;5041954;28;20040;-75
2023/09/18 09:48:06;;;;;;;6.55;1.95;;;;;;;22.87;66.85;98862.38;5042683;28;20123;-76
2023/09/18 09:50:32;;;;;;;2.85;1.10;;;;;;;22.95;66.30;98855.75;5042108;28;20632;-76
2023/09/18 09:52:58;;;;;;;3.22;1.83;;;;;;;23.09;65.70;98857.97;5042600;28;20117;-77
2023/09/18 09:55:37;;;;;;;7.55;2.08;;;;;;;23.23;65.68;98858.56;5042252;28;20482;-77
2023/09/18 09:58:05;;;;;;;8.60;2.80;;;;;;;23.30;65.32;98870.59;5043144;28;20358;-78
2023/09/18 10:00:43;;;;;;;8.32;1.80;;;;;;;23.32;64.69;98859.91;5042138;28;20045;-78
2023/09/18 10:03:10;;;;;;;5.97;1.90;;;;;;;23.21;64.32;98856.97;5042809;28;20063;-76
2023/09/18 10:05:38;;;;;;;9.57;1.80;;;;;;;23.11;64.76;98865.16;5041908;28;20049;-75
2023/09/18 10:08:08;;;;;;;9.57;1.63;;;;;;;22.95;64.36;98860.50;5042327;28;20148;-75
2023/09/18 10:10:42;;;;;;;5.65;2.15;;;;;;;22.96;64.46;98857.34;5042253;28;20410;-74
2023/09/18 10:13:32;;;;;;;5.97;1.52;;;;;;;23.17;64.32;98858.88;5042467;28;20095;-74
2023/09/18 10:16:02;;;;;;;6.20;1.67;;;;;;;23.10;64.47;98856.00;5042265;28;20438;-73
2023/09/18 10:18:36;;;;;;;7.38;1.52;;;;;;;23.23;64.21;98858.56;5043072;28;20060;-72
2023/09/18 10:21:31;;;;;;;7.35;1.30;;;;;;;23.11;64.37;98862.38;5042198;28;20430;-74
2023/09/18 10:24:07;;;;;;;4.50;1.23;;;;;;;23.07;64.39;98846.41;5041890;28;20033;-73
2023/09/18 10:26:43;;;;;;;5.22;1.50;;;;;;;23.15;64.77;98865.97;5042571;28;20045;-74
2023/09/18 10:29:11;;;;;;;8.50;1.88;;;;;;;23.16;64.39;98851.72;5042264;28;20390;-74
2023/09/18 10:31:40;;;;;;;3.58;1.30;;;;;;;23.39;64.45;98850.06;5041943;28;20106;-74
2023/09/18 10:34:06;;;;;;;3.95;1.63;;;;;;;23.58;63.94;98845.56;5041338;28;20102;-73
2023/09/18 10:36:33;;;;;;;6.38;1.63;;;;;;;23.56;63.48;98834.84;5042380;28;20052;-72
2023/09/18 10:38:59;;;;;;;3.85;1.67;;;;;;;23.64;63.74;98847.66;5041065;28;20094;-76
2023/09/18 10:41:26;;;;;;;3.58;1.30;;;;;;;23.77;63.47;98841.88;5040623;28;20254;-74
2023/09/18 10:43:57;;;;;;;4.35;1.67;;;;;;;23.92;62.95;98833.72;5041717;28;20033;-73
2023/09/18 10:46:24;;;;;;;8.10;2.50;;;;;;;23.88;62.67;98842.03;5042285;28;20509;-72
2023/09/18 10:48:50;;;;;;;7.35;1.50;;;;;;;23.85;62.66;98842.75;5043871;28;20667;-72
2023/09/18 10:51:20;;;;;;;4.80;1.60;;;;;;;23.73;62.66;98844.63;5045734;28;20063;-73
2023/09/18 10:53:47;;;;;;;16.73;3.58;;;;;;;23.72;62.32;98840.22;5045149;28;20033;-72
2023/09/18 10:56:17;;;;;;;5.10;1.70;;;;;;;23.83;62.36;98857.06;5044008;28;20060;-73
2023/09/18 10:58:43;;;;;;;9.70;2.30;;;;;;;23.87;61.74;98855.13;5046395;28;20037;-73
2023/09/18 11:01:11;;;;;;;5.72;1.77;;;;;;;23.92;61.76;98847.63;5045604;28;20040;-77
2023/09/18 11:03:38;;;;;;;5.10;2.00;;;;;;;24.03;61.14;98848.56;5043698;28;20048;-74
2023/09/18 11:06:10;;;;;;;3.20;1.52;;;;;;;24.14;61.41;98843.13;5045813;28;20447;-74
2023/09/18 11:08:53;;;;;;;4.90;1.87;;;;;;;24.45;60.86;98831.94;5045649;28;20583;-75
2023/09/18 11:11:25;;;;;;;4.38;1.23;;;;;;;24.33;60.35;98839.38;5046244;28;20041;-74
2023/09/18 11:13:54;;;;;;;6.55;1.88;;;;;;;24.43;60.09;98837.09;5047265;28;20032;-79
2023/09/18 11:16:28;;;;;;;5.00;1.20;;;;;;;24.64;60.11;98818.97;5049222;28;20037;-78
2023/09/18 11:18:59;;;;;;;5.53;1.92;;;;;;;24.60;59.27;98819.75;5045771;28;20124;-76
2023/09/18 11:21:26;;;;;;;7.50;2.13;;;;;;;24.56;59.56;98824.47;5046143;28;20049;-75
2023/09/18 11:24:23;;;;;;;2.88;1.40;;;;;;;24.66;59.26;98820.19;5045229;28;20025;-74
2023/09/18 11:26:51;;;;;;;6.07;2.00;;;;;;;24.57;58.51;98819.72;5045928;28;20048;-76
2023/09/18 11:29:22;;;;;;;6.65;1.58;;;;;;;24.56;58.18;98824.47;5045701;28;20414;-76